Главная страница
METAR-TAF:

METAR-TAF

Аэропорты :

Стокгольм-Скавста, Швеция

широта: 58-47N, долгота: 016-55E, высота над уровнем моря: 43 м

Текущие метеонаблюдения

Эта сводка был подготовлена 56 минут назад, в 15:50 UTC
Ветер 7 Узел от северо-восточный
Температура 14°C
Влажность 77%
Давление 1008 hPa
Видимость 10 км и более
небольшой дождь,

METAR: ESKN 221550Z 05007KT 9999 -RA NSC 14/10 Q1008

Время: 18:46 (16:46 UTC)

Прогноз

Эта сводка был подготовлена 2 часа и 16 минут назад, в 14:30 UTC
Прогноз действительный с 22-го 15 UTC до 23-го 15 UTC
Ветер 10 Узел от восточный
Видимость 10 км и более
небольшой дождь
Вероятность 40%
С 22-го 15 UTC до 22-го 24 UTC
дождь
изменения
С 22-го 21 UTC до 22-го 23 UTC
Ветер 5 Узел от северный

TAF: ESKN 221430Z 2215/2315 08010KT 9999 -RA NSC PROB40 2215/2224 RA BECMG 2221/2223 36005KT

Метеонаблюдения и прогнозы для более 4000 аэропортов (сводки METAR и TAF).

Имеющиеся станции представлены на карте желтыми и красными точками.

Чтобы увидеть название станции, наведите на нее мышь.

Затем щелкните, чтобы увидеть метеонаблюдения и метеопрогнозы.

Управление картой: чтобы увеличить масштаб, щелкните зеленые кнопки с черным крестиком; чтобы уменьшить масштаб, щелкните зеленую кнопку с тире; для просмотра соседних карт щелкайте зеленые стрелки.


METAR-TAF: